Terminal Aerodrome Forecast
Issued by NWS

Home | Current Version | Previous Version | Text Only | Print | Product List | Glossary On
Versions: 1 2 3 4 5 6 7 8 9 10 11 12 13 14 15 16 17
000
FTUS46 KSEW 271120
TAFPAE
TAF
KPAE 271120Z 2712/2812 15007KT P6SM SCT015 BKN035
      TEMPO 2712/2715 BKN015 OVC030
     FM271500 18008KT P6SM OVC015
     FM271800 20008KT P6SM BKN025
     FM272000 26006KT P6SM SCT040 SCT200
     FM280000 32006KT P6SM SCT200
     FM281100 18006KT P6SM BKN020=

USA.gov is the U.S. government's official web portal to all federal, state and local government web resources and services.